Hastings Natural History Reservation, California Weather observations

Data are for 10 minute period ending at time listed.
 Day   Time   Solar   Ave.   Ave.  Ave.  Vector  Max.   Baro.   Total    
  of    of     Rad.   Air    Rel.  Wind   Wind   Wind  Press.  Precip.   
Year   Day            Temp.  Hum.  Speed  Dir.   Gust                    
2015   (PST)  Kw/m2    F      %     mph   deg.    mph    mb.     in.     
-------------------------------------------------------------------------
 238   19:00   0.03   79.9    29    3.7   251     6.8   953.5    0.00 
 238   19:10   0.01   78.7    30    3.1   239     6.5   953.6    0.00 
 238   19:20   0.01   77.5    29    2.4   214     4.8   953.6    0.00 
 238   19:30   0.01   76.1    30    2.5   230     4.3   953.6    0.00 
 238   19:40   0.00   74.8    31    2.7   220     4.4   953.6    0.00 
 238   19:50   0.00   73.9    32    2.4   225     3.6   953.6    0.00 
 238   20:00   0.00   73.3    32    1.3   227     3.6   953.6    0.00 
 238   20:10   0.00   72.4    32    0.5   204     1.4   953.7    0.00 
 238   20:20   0.00   70.8    34    1.0    61     2.0   953.8    0.00 
 238   20:30   0.00   69.2    36    1.6    48     2.0   953.8    0.00 
 238   20:40   0.00   68.2    36    1.5    38     2.3   953.9    0.00 
 238   20:50   0.00   67.5    36    1.8    44     3.2   953.9    0.00 
 238   21:00   0.00   66.9    37    0.6    40     1.9   953.9    0.00 
 238   21:10   0.00   66.5    38    0.5    62     1.5   954.0    0.00 
 238   21:20   0.00   65.7    38    0.5    59     2.0   954.2    0.00 
 238   21:30   0.00   65.1    40    0.7    57     2.0   954.3    0.00 
 238   21:40   0.00   64.8    40    1.1    51     2.2   954.4    0.00 
 238   21:50   0.00   64.5    40    1.5    53     2.3   954.4    0.00 
 238   22:00   0.00   64.3    40    0.5    54     1.9   954.5    0.00 
 238   22:10   0.00   64.2    40    0.1    38     1.2   954.5    0.00 
 238   22:20   0.00   63.9    40    0.1    48     0.9   954.6    0.00 
 238   22:30   0.00   63.7    40    0.1    53     1.1   954.5    0.00 
 238   22:40   0.00   63.2    41    0.0    74     0.4   954.5    0.00 
 238   22:50   0.00   62.8    41    0.3    52     1.0   954.5    0.00 
 238   23:00   0.00   62.5    40    0.0     0     0.0   954.4    0.00 
 238   23:10   0.00   62.2    40    0.1   200     1.2   954.3    0.00 
 238   23:20   0.00   61.9    40    0.2    53     1.2   954.3    0.00 
 238   23:30   0.00   61.7    40    0.1   247     0.8   954.3    0.00 
 238   23:40   0.00   61.2    41    0.3    60     0.9   954.3    0.00 
 238   23:50   0.00   60.9    41    0.7    52     1.5   954.4    0.00 
 239    0:00   0.00   60.7    41    0.5    61     1.8   954.5    0.00 
 239    0:10   0.00   60.8    41    0.5    55     1.0   954.5    0.00 
 239    0:20   0.00   60.5    42    0.1    51     1.2   954.5    0.00 
 239    0:30   0.00   60.1    43    0.0     0     0.0   954.5    0.00 
 239    0:40   0.00   59.9    44    0.8    51     1.7   954.6    0.00 
 239    0:50   0.00   59.9    43    0.3    42     1.1   954.6    0.00 
 239    1:00   0.00   59.4    44    0.4    56     1.5   954.6    0.00 
 239    1:10   0.00   59.3    44    0.3    71     1.2   954.5    0.00 
 239    1:20   0.00   59.3    43    0.2    60     1.3   954.5    0.00 
 239    1:30   0.00   59.3    43    0.1    36     1.2   954.5    0.00 
 239    1:40   0.00   59.1    42    0.1   252     0.8   954.4    0.00 
 239    1:50   0.00   58.8    43    0.2    68     1.8   954.4    0.00 
 239    2:00   0.00   58.8    43    0.3    54     1.5   954.3    0.00 
 239    2:10   0.00   58.7    43    0.0    59     0.9   954.3    0.00 
 239    2:20   0.00   58.5    43    1.1    61     2.3   954.4    0.00 
 239    2:30   0.00   58.8    44    0.7    53     1.5   954.5    0.00 
 239    2:40   0.00   58.7    44    0.4    52     1.7   954.5    0.00 
 239    2:50   0.00   58.2    45    0.1    60     1.2   954.5    0.00 
 239    3:00   0.00   58.0    46    0.6    54     1.7   954.5    0.00 
 239    3:10   0.00   57.9    47    0.0    57     0.2   954.4    0.00 
 239    3:20   0.00   57.6    47    0.0   267     0.6   954.4    0.00 
 239    3:30   0.00   57.3    47    0.2    50     1.0   954.3    0.00 
 239    3:40   0.00   57.6    46    0.0     0     0.0   954.3    0.00 
 239    3:50   0.00   57.6    47    0.0     0     0.0   954.2    0.00 
 239    4:00   0.00   57.4    48    0.4    51     1.6   954.2    0.00 
 239    4:10   0.00   58.1    47    0.6    59     1.4   954.3    0.00 
 239    4:20   0.00   57.9    48    0.3    45     1.0   954.3    0.00 
 239    4:30   0.00   57.8    49    0.0     0     0.0   954.3    0.00 
 239    4:40   0.00   57.6    49    0.4    49     1.2   954.2    0.00 
 239    4:50   0.00   57.8    49    0.0    44     0.4   954.2    0.00 
 239    5:00   0.00   57.5    49    0.1    46     0.9   954.2    0.00 
 239    5:10   0.00   57.4    50    0.0     0     0.0   954.2    0.00 
 239    5:20   0.00   57.4    50    0.0     0     0.0   954.2    0.00 
 239    5:30   0.00   57.4    50    0.3    59     1.0   954.3    0.00 
 239    5:40   0.00   57.8    49    0.2    60     1.3   954.4    0.00 
 239    5:50   0.00   58.0    49    0.7    54     1.8   954.4    0.00 
 239    6:00   0.00   58.2    49    0.0     0     0.0   954.5    0.00 
 239    6:10   0.00   58.2    49    0.0    33     0.5   954.5    0.00 
 239    6:20   0.00   58.2    50    0.0    46     0.6   954.6    0.00 
 239    6:30   0.00   58.1    50    0.1    40     1.2   954.6    0.00 
 239    6:40   0.00   58.2    50    0.4    54     1.2   954.8    0.00 
 239    6:50   0.00   58.3    50    0.0    45     0.2   954.9    0.00 
 239    7:00   0.00   58.4    50    0.6    54     1.9   954.9    0.00 
 239    7:10   0.00   59.1    49    0.9    64     1.8   955.1    0.00 
 239    7:20   0.01   59.4    49    0.0     0     0.0   955.2    0.00 
 239    7:30   0.01   59.4    50    0.1    43     0.9   955.3    0.00 
 239    7:40   0.01   59.8    49    0.5    70     1.2   955.3    0.00 
 239    7:50   0.01   60.4    49    0.2    70     1.0   955.3    0.00 
 239    8:00   0.02   61.2    48    1.0    72     1.4   955.5    0.00 
 239    8:10   0.03   62.7    46    1.4    56     2.0   955.5    0.00 
 239    8:20   0.18   64.7    43    0.8    56     2.2   955.5    0.00 
 239    8:30   0.24   67.9    39    0.2    77     0.8   955.5    0.00 
 239    8:40   0.27   72.6    34    0.0    72     0.7   955.4    0.00 
 239    8:50   0.29   76.6    30    0.4    74     1.2   955.3    0.00 
 239    9:00   0.33   78.4    28    0.9    73     1.5   955.1    0.00 
 239    9:10   0.36   80.6    26    0.2    79     1.2   954.9    0.00 
 239    9:20   0.37   82.7    24    0.1    93     0.9   954.9    0.00 
 239    9:30   0.42   83.1    24    0.6   208     1.5   954.9    0.00 
 239    9:40   0.45   85.0    22    0.4   222     1.3   955.0    0.00 
 239    9:50   0.48   87.1    21    0.6    80     1.6   955.2    0.00 
 239   10:00   0.51   88.4    20    0.9   103     3.1   955.2    0.00 
 239   10:10   0.53   88.6    20    0.9   231     3.4   955.1    0.00 
 239   10:20   0.56   89.9    18    1.9   228     5.0   955.1    0.00 
 239   10:30   0.59   89.7    18    1.4   315     4.0   955.3    0.00 
 239   10:40   0.63   90.6    18    2.0   257     5.8   955.3    0.00 
 239   10:50   0.66   91.4    18    2.2   259     7.2   955.3    0.00 
 239   11:00   0.68   90.8    18    4.2   243     7.5   955.3    0.00 
 239   11:10   0.70   91.4    18    2.7   278     8.0   955.3    0.00 
 239   11:20   0.72   91.6    17    4.8   242     9.7   955.3    0.00 
 239   11:30   0.73   91.7    17    4.7   250     9.2   955.3    0.00 
 239   11:40   0.72   92.5    16    3.7   242     8.4   955.2    0.00 
 239   11:50   0.76   93.3    16    3.9   250     9.9   955.1    0.00 
 239   12:00   0.79   93.9    15    4.5   247    10.1   955.0    0.00 
 239   12:10   0.79   95.8    14    2.7   265     9.6   954.9    0.00 
 239   12:20   0.80   94.8    14    4.0   252     9.3   954.8    0.00 
 239   12:30   0.76   94.4    15    5.4   252    11.6   954.7    0.00 
 239   12:40   0.82   95.1    14    3.2   263    10.4   954.6    0.00 
 239   12:50   0.74   94.3    15    6.9   242    16.7   954.5    0.00 
 239   13:00   0.76   94.7    14    6.0   250    13.2   954.5    0.00 
 239   13:10   0.79   95.7    14    4.3   249    11.0   954.5    0.00 
 239   13:20   0.79   95.0    14    6.0   245    11.1   954.4    0.00 
 239   13:30   0.75   94.9    14    6.0   249    11.5   954.4    0.00 
 239   13:40   0.79   94.9    15    5.7   253    12.6   954.4    0.00 
 239   13:50   0.80   95.5    15    4.3   272    11.8   954.3    0.00 
 239   14:00   0.79   95.5    16    4.6   263    11.6   954.3    0.00 
 239   14:10   0.79   95.7    16    4.5   253    14.7   954.3    0.00 
 239   14:20   0.78   95.8    16    5.0   249    13.4   954.2    0.00 
 239   14:30   0.77   95.1    17    5.0   249    11.8   954.2    0.00 
 239   14:40   0.75   94.5    17    5.7   255    14.2   954.1    0.00 
 239   14:50   0.75   94.6    17    4.2   260    10.7   954.0    0.00 
 239   15:00   0.71   94.4    17    5.5   251    11.2   953.9    0.00 
 239   15:10   0.72   94.3    17    4.5   260    10.6   953.9    0.00 
 239   15:20   0.72   95.0    16    5.0   257    12.1   953.8    0.00 
 239   15:30   0.70   95.1    16    3.4   273     9.5   953.8    0.00 
 239   15:40   0.69   94.6    17    3.8   263     9.6   953.8    0.00 
 239   15:50   0.66   94.1    17    3.8   267    10.6   953.7    0.00 
 239   16:00   0.63   91.8    18    6.5   251    15.3   953.7    0.00 
 239   16:10   0.60   91.8    17    5.4   256    10.9   953.9    0.00 
 239   16:20   0.58   91.1    18    3.7   267    14.2   954.0    0.00 
 239   16:30   0.55   90.8    18    3.9   265    12.1   953.9    0.00 
 239   16:40   0.52   89.5    19    5.8   249    13.6   953.8    0.00 
 239   16:50   0.47   89.1    19    4.2   254    10.8   953.7    0.00 
 239   17:00   0.42   88.5    19    4.1   249     9.6   953.6    0.00 
 239   17:10   0.42   88.8    18    4.5   251    10.9   953.5    0.00 
 239   17:20   0.35   89.0    19    3.5   255     8.8   953.5    0.00 
 239   17:30   0.35   88.3    19    4.4   250    11.9   953.5    0.00 
 239   17:40   0.24   88.9    19    2.5   279     7.5   953.6    0.00 
 239   17:50   0.20   89.1    19    2.5   270     9.1   953.7    0.00 
 239   18:00   0.22   86.9    21    3.5   271    11.3   953.7    0.00 
 239   18:10   0.13   86.8    21    2.1   290     8.2   953.7    0.00 
 239   18:20   0.18   85.9    22    2.1   268     7.6   953.7    0.00 
 239   18:30   0.20   84.2    23    3.6   260     8.0   953.7    0.00 
 239   18:40   0.15   83.1    24    2.6   273     6.5   953.5    0.00 
 239   18:50   0.03   82.5    25    1.4   290     6.2   953.5    0.00 

Return to Hastings Natural History Reservation graphs page.


Western Regional Climate Center,wrcc@dri.edu